• Join FlightAware (Why Join?)
  • Login
  • US Flag 
03:07PM EDT


 

Airport Tracker/Info


-or-


 

Live Flight TrackerFlight Track Log ✈ SWA655 ✈ 17-Apr-2013 ✈ KSNA - KOAK

Flight Track Log - Related Links

Times and Time Zones

All times are in EDT time to prevent confusion due to time zone crossing. See the SWA655 flight status page for this flight to view local times or setup timezone preferences in your user account.

Time Position Orientation Groundspeed Altitude Reporting Facility
EDT Latitude Longitude Course Direction KTS MPH feet Rate Location/Type
02:23PM 33.7167 -117.8500 270° West 164 189 2,600  Level Southern California TRACON
02:24PM 33.7500 -117.8000 51° Northeast 227 261 6,900 3,240 Climbing Southern California TRACON
02:26PM 33.6064 -117.8433 194° South 310 357 13,000 3,060 Climbing Los Angeles Center
02:28PM 33.5339 -117.9297 225° Southwest 348 400 16,900 3,660 Climbing Los Angeles Center
02:29PM 33.3667 -118.3684 270° West  Level FlightAware Approximate
02:29PM 33.4633 -118.0183 226° Southwest 362 417 20,600  Level Los Angeles Center
02:30PM 33.4542 -118.1447 265° West 343 395 23,000 1,860 Climbing Los Angeles Center
02:31PM 33.5381 -118.2047 329° Northwest 355 409 24,500 1,560 Climbing Los Angeles Center
02:32PM 33.6317 -118.2583 335° Northwest 368 423 26,300 1,920 Climbing Los Angeles Center
02:33PM 33.7275 -118.3136 334° Northwest 384 442 28,500 1,920 Climbing Los Angeles Center
02:34PM 33.8278 -118.3722 334° Northwest 396 456 30,300 2,100 Climbing Los Angeles Center
02:35PM 33.9450 -118.4392 335° Northwest 411 473 32,900 1,620 Climbing Los Angeles Center
02:36PM 34.0497 -118.4892 338° Northwest 408 470 34,000 780 Climbing Los Angeles Center
02:37PM 34.1744 -118.5506 338° Northwest 403 464 34,800 1,320 Climbing Los Angeles Center
02:38PM 34.2989 -118.6122 338° Northwest 403 464 36,800 1,680 Climbing Los Angeles Center
02:39PM 34.4031 -118.6631 338° Northwest 405 466 38,400 1,380 Climbing Los Angeles Center
02:40PM 34.5061 -118.7142 338° Northwest 402 463 39,700 720 Climbing Los Angeles Center
02:41PM 34.6083 -118.7653 338° Northwest 398 458 40,000 120 Climbing Los Angeles Center
02:42PM 34.7119 -118.8161 338° Northwest 401 461 40,000  Level Los Angeles Center
02:43PM 34.8136 -118.8717 336° Northwest 400 460 40,000  Level Los Angeles Center
02:44PM 34.9097 -118.9656 321° Northwest 380 437 40,000  Level Los Angeles Center
02:45PM 34.9914 -119.0464 321° Northwest 379 436 40,000  Level Los Angeles Center
02:46PM 35.0739 -119.1272 321° Northwest 380 437 40,000  Level Los Angeles Center
02:47PM 35.1567 -119.2072 322° Northwest 380 437 40,000  Level Los Angeles Center
02:48PM 35.2575 -119.3064 321° Northwest 386 444 40,000  Level Los Angeles Center
02:49PM 35.3431 -119.3900 321° Northwest 392 451 40,000  Level Los Angeles Center
02:50PM 35.4289 -119.4736 322° Northwest 394 453 40,000  Level Los Angeles Center
02:52PM 35.5131 -119.5578 321° Northwest 396 456 40,000  Level Oakland Center
02:53PM 35.5989 -119.6428 321° Northwest 400 460 40,000  Level Oakland Center
02:54PM 35.6833 -119.7283 321° Northwest 398 458 40,000  Level Oakland Center
02:55PM 35.7697 -119.8136 321° Northwest 400 460 40,000  Level Oakland Center
02:56PM 35.8700 -119.9136 321° Northwest 392 451 40,000  Level Oakland Center
02:57PM 35.9531 -119.9992 320° Northwest 392 451 40,000  Level Oakland Center
02:58PM 36.0364 -120.0836 321° Northwest 392 451 40,000  Level Oakland Center
02:59PM 36.1189 -120.1669 321° Northwest 386 444 40,000  Level Oakland Center
03:00PM 36.1997 -120.2497 320° Northwest 381 438 40,000 -240 Level Oakland Center
03:01PM 36.2814 -120.3328 321° Northwest 380 437 39,600 -1,380 Descending Oakland Center
03:02PM 36.3625 -120.4144 321° Northwest 378 435 37,200 -2,460 Descending Oakland Center
03:03PM 36.4419 -120.4978 320° Northwest 375 432 34,600 -2,520 Descending Oakland Center
03:04PM 36.5353 -120.5911 321° Northwest 361 415 32,100 -2,220 Descending Oakland Center
03:05PM 36.6069 -120.6694 319° Northwest 344 396 30,100 -1,980 Descending Oakland Center
03:06PM 36.6758 -120.7394 321° Northwest 322 371 28,100 -1,920 Descending Oakland Center
03:07PM 36.7406 -120.8081 320° Northwest 307 353 26,300 -1,800 Descending Oakland Center
03:08PM 36.8022 -120.8764 318° Northwest 298 343 24,500 -1,800 Descending Oakland Center
03:09PM 36.8667 -120.9511 317° Northwest 303 349 22,700 -1,740 Descending Oakland Center
03:10PM 36.9278 -121.0194 318° Northwest 297 342 21,000 -1,680 Descending Oakland Center
03:11PM 36.9875 -121.0878 318° Northwest 293 337 19,300 -1,620 Descending Oakland Center
03:12PM 37.0492 -121.1572 318° Northwest 291 335 17,700 -1,740 Descending Oakland Center
03:13PM 37.1042 -121.2233 316° Northwest 283 326 15,800 -1,800 Descending Oakland Center
03:14PM 37.1608 -121.2867 318° Northwest 274 315 14,100 -1,800 Descending Oakland Center
03:15PM 37.2261 -121.3661 316° Northwest 271 312 12,200 -1,800 Descending Oakland Center
03:16PM 37.2817 -121.4281 318° Northwest 269 310 10,500 -1,260 Descending Oakland Center
03:17PM 37.3364 -121.4928 317° Northwest 268 308 9,700 -840 Descending Oakland Center
03:18PM 37.3875 -121.5522 317° Northwest 254 292 8,800 -960 Descending Oakland Center
03:18PM 37.4000 -121.5667 317° Northwest 249 287 8,500 -840 Descending Northern Cal TRACON
03:19PM 37.4667 -121.6333 322° Northwest 251 289 7,700 -660 Descending Northern Cal TRACON
03:20PM 37.4833 -121.7167 284° West 258 297 7,200 -840 Descending Northern Cal TRACON
03:21PM 37.5000 -121.8000 284° West 249 287 6,100 -840 Descending Northern Cal TRACON
03:22PM 37.5167 -121.8833 284° West 226 260 5,600 -780 Descending Northern Cal TRACON
03:23PM 37.5333 -121.9500 288° West 216 249 4,700 -960 Descending Northern Cal TRACON
03:24PM 37.5667 -122.0167 302° West 201 231 3,700 -900 Descending Northern Cal TRACON
03:25PM 37.6000 -122.0667 310° West 179 206 2,900 -900 Descending Northern Cal TRACON
03:26PM 37.6261 -122.1025 313° West 187 215 2,200 -840 Descending Oakland Center
03:27PM 37.6544 -122.1450 310° West 173 199 1,400 -780 Descending Oakland Center
03:28PM 37.6772 -122.1783 311° West 146 168 700 9,060 Descending Oakland Center
03:29PM 37.6989 -122.2100 311° West 128 147 20,000 9,360 Climbing Oakland Center
03:30PM 37.7119 -122.2300 310° West 90 104 20,000  Level Oakland Center
03:32PM 37.7167 -122.2167 270° West  Level FlightAware Approximate